SBOSBO SOF / LBSF
Speedbird OnlineSpeedbird Online SOF / LBSF

Sofia Airport
11:03 11°C

Location Sofia, Bulgaria
Latitude: 42.696693420410156
Longitude: 23.411436080932617
Web Airport Website | Wikipedia
Altitude 531 Meter / 1742 Feet
Distance 2,004 KM / 1,245 Miles
from London.
Time Zone UTC +3 hours (Europe/Sofia)
Codes IATA: SOF
ICAO: LBSF
Currency £1 equals BGN 2.24
Runways
RunwayLength (m)Surface
093600Asphalt
273600Asphalt
Radio
TypeDescriptionFrequency
APPAPP123.7
ATISATIS124.05
TWRTWR118.1
Live ATC
METAR LBSF 060730Z VRB02KT CAVOK 09/05 Q1029 NOSIG
TAF TAF LBSF 060500Z 0606/0706 VRB04KT 9999 SCT060 TEMPO 0606/0607 5000 BR SCT005 BECMG 0612/0614 06010KT BECMG 0619/0621 VRB04KT
Weather As Of 06 Oct 2022 11:03
Description Clear sky
Wind 4 km/h from North (0°)
Cloud Cover 0%
Precipitation Rain: none, Snow: none
Sunrise 07:28
Sunset 19:00
Lounges Aspire Lounge, Terminal 2
Preslav Lounge , Terminal 2
Rotations During the last 90 days there were
79 flights from LHR
80 flights to LHR


© 2017-2022 Speedbird Online